sensor_id;sensor_type;location;lat;lon;timestamp;P1;durP1;ratioP1;P2;durP2;ratioP2
26750;SDS011;14345;48.272;25.926;2023-10-09T00:02:10;3.15;;;1.27;;
26750;SDS011;14345;48.272;25.926;2023-10-09T00:04:43;4.43;;;1.38;;
26750;SDS011;14345;48.272;25.926;2023-10-09T00:07:12;2.88;;;1.73;;
26750;SDS011;14345;48.272;25.926;2023-10-09T00:09:42;2.17;;;1.17;;
26750;SDS011;14345;48.272;25.926;2023-10-09T00:12:16;2.67;;;1.45;;
26750;SDS011;14345;48.272;25.926;2023-10-09T00:14:47;4.20;;;1.42;;
26750;SDS011;14345;48.272;25.926;2023-10-09T00:17:16;2.10;;;1.45;;
26750;SDS011;14345;48.272;25.926;2023-10-09T00:19:46;2.53;;;1.40;;
26750;SDS011;14345;48.272;25.926;2023-10-09T00:22:24;3.83;;;0.98;;
26750;SDS011;14345;48.272;25.926;2023-10-09T00:24:55;4.05;;;1.38;;
26750;SDS011;14345;48.272;25.926;2023-10-09T00:27:47;5.35;;;1.40;;
26750;SDS011;14345;48.272;25.926;2023-10-09T00:30:14;2.22;;;1.05;;
26750;SDS011;14345;48.272;25.926;2023-10-09T00:32:43;2.20;;;1.20;;
26750;SDS011;14345;48.272;25.926;2023-10-09T00:35:32;6.30;;;1.30;;
26750;SDS011;14345;48.272;25.926;2023-10-09T00:38:02;2.92;;;1.45;;
26750;SDS011;14345;48.272;25.926;2023-10-09T00:40:39;3.72;;;1.23;;
26750;SDS011;14345;48.272;25.926;2023-10-09T00:43:11;2.92;;;1.52;;
26750;SDS011;14345;48.272;25.926;2023-10-09T00:45:38;6.65;;;1.67;;
26750;SDS011;14345;48.272;25.926;2023-10-09T00:48:05;4.07;;;1.52;;
26750;SDS011;14345;48.272;25.926;2023-10-09T00:50:33;2.88;;;1.50;;
26750;SDS011;14345;48.272;25.926;2023-10-09T00:53:04;3.55;;;1.80;;
26750;SDS011;14345;48.272;25.926;2023-10-09T00:55:43;5.53;;;1.25;;
26750;SDS011;14345;48.272;25.926;2023-10-09T00:58:13;3.40;;;1.45;;
26750;SDS011;14345;48.272;25.926;2023-10-09T01:00:40;7.32;;;1.63;;
26750;SDS011;14345;48.272;25.926;2023-10-09T01:03:10;3.38;;;1.83;;
26750;SDS011;14345;48.272;25.926;2023-10-09T01:08:31;5.75;;;1.60;;
26750;SDS011;14345;48.272;25.926;2023-10-09T01:11:12;3.20;;;1.60;;
26750;SDS011;14345;48.272;25.926;2023-10-09T01:13:47;3.38;;;1.67;;
26750;SDS011;14345;48.272;25.926;2023-10-09T01:16:13;4.28;;;1.63;;
26750;SDS011;14345;48.272;25.926;2023-10-09T01:18:45;4.82;;;1.50;;
26750;SDS011;14345;48.272;25.926;2023-10-09T01:21:14;2.45;;;1.42;;
26750;SDS011;14345;48.272;25.926;2023-10-09T01:23:41;2.63;;;1.60;;
26750;SDS011;14345;48.272;25.926;2023-10-09T01:26:27;4.75;;;1.75;;
26750;SDS011;14345;48.272;25.926;2023-10-09T01:28:57;2.30;;;1.52;;
26750;SDS011;14345;48.272;25.926;2023-10-09T01:31:25;3.10;;;1.30;;
26750;SDS011;14345;48.272;25.926;2023-10-09T01:34:03;1.80;;;1.20;;
26750;SDS011;14345;48.272;25.926;2023-10-09T01:36:35;3.40;;;1.45;;
26750;SDS011;14345;48.272;25.926;2023-10-09T01:39:04;2.90;;;1.58;;
26750;SDS011;14345;48.272;25.926;2023-10-09T01:41:50;3.22;;;1.60;;
26750;SDS011;14345;48.272;25.926;2023-10-09T01:44:26;5.27;;;1.77;;
26750;SDS011;14345;48.272;25.926;2023-10-09T01:46:59;3.22;;;1.70;;
26750;SDS011;14345;48.272;25.926;2023-10-09T01:49:32;5.10;;;1.77;;
26750;SDS011;14345;48.272;25.926;2023-10-09T01:51:58;5.30;;;2.10;;
26750;SDS011;14345;48.272;25.926;2023-10-09T01:54:26;3.95;;;1.60;;
26750;SDS011;14345;48.272;25.926;2023-10-09T01:57:02;3.90;;;1.40;;
26750;SDS011;14345;48.272;25.926;2023-10-09T01:59:35;5.65;;;1.52;;
26750;SDS011;14345;48.272;25.926;2023-10-09T02:02:08;6.13;;;1.77;;
26750;SDS011;14345;48.272;25.926;2023-10-09T02:04:57;4.65;;;1.92;;
26750;SDS011;14345;48.272;25.926;2023-10-09T02:07:35;7.03;;;1.92;;
26750;SDS011;14345;48.272;25.926;2023-10-09T02:10:17;3.78;;;1.80;;
26750;SDS011;14345;48.272;25.926;2023-10-09T02:12:50;2.67;;;1.50;;
26750;SDS011;14345;48.272;25.926;2023-10-09T02:15:29;4.25;;;1.90;;
26750;SDS011;14345;48.272;25.926;2023-10-09T02:18:08;3.38;;;1.80;;
26750;SDS011;14345;48.272;25.926;2023-10-09T02:23:25;6.28;;;1.73;;
26750;SDS011;14345;48.272;25.926;2023-10-09T02:26:05;2.35;;;1.40;;
26750;SDS011;14345;48.272;25.926;2023-10-09T02:28:32;6.38;;;1.65;;
26750;SDS011;14345;48.272;25.926;2023-10-09T02:30:59;4.75;;;1.88;;
26750;SDS011;14345;48.272;25.926;2023-10-09T02:33:28;4.13;;;1.58;;
26750;SDS011;14345;48.272;25.926;2023-10-09T02:35:55;2.78;;;1.40;;
26750;SDS011;14345;48.272;25.926;2023-10-09T02:38:24;2.92;;;1.50;;
26750;SDS011;14345;48.272;25.926;2023-10-09T02:40:51;4.55;;;1.48;;
26750;SDS011;14345;48.272;25.926;2023-10-09T02:43:30;3.85;;;1.60;;
26750;SDS011;14345;48.272;25.926;2023-10-09T02:46:05;3.95;;;1.58;;
26750;SDS011;14345;48.272;25.926;2023-10-09T02:48:44;2.72;;;1.60;;
26750;SDS011;14345;48.272;25.926;2023-10-09T02:51:15;2.03;;;1.30;;
26750;SDS011;14345;48.272;25.926;2023-10-09T02:54:02;5.80;;;2.15;;
26750;SDS011;14345;48.272;25.926;2023-10-09T02:56:47;3.20;;;1.50;;
26750;SDS011;14345;48.272;25.926;2023-10-09T02:59:21;3.15;;;1.52;;
26750;SDS011;14345;48.272;25.926;2023-10-09T03:01:48;3.17;;;1.67;;
26750;SDS011;14345;48.272;25.926;2023-10-09T03:04:14;2.28;;;1.48;;
26750;SDS011;14345;48.272;25.926;2023-10-09T03:06:41;3.72;;;1.27;;
26750;SDS011;14345;48.272;25.926;2023-10-09T03:09:19;3.35;;;1.70;;
26750;SDS011;14345;48.272;25.926;2023-10-09T03:11:53;4.75;;;1.83;;
26750;SDS011;14345;48.272;25.926;2023-10-09T03:14:22;4.15;;;1.42;;
26750;SDS011;14345;48.272;25.926;2023-10-09T03:16:51;3.78;;;1.83;;
26750;SDS011;14345;48.272;25.926;2023-10-09T03:19:17;2.45;;;1.55;;
26750;SDS011;14345;48.272;25.926;2023-10-09T03:21:43;4.07;;;1.65;;
26750;SDS011;14345;48.272;25.926;2023-10-09T03:24:11;3.28;;;1.58;;
26750;SDS011;14345;48.272;25.926;2023-10-09T03:26:37;3.63;;;1.70;;
26750;SDS011;14345;48.272;25.926;2023-10-09T03:29:03;5.85;;;1.80;;
26750;SDS011;14345;48.272;25.926;2023-10-09T03:31:35;6.03;;;2.15;;
26750;SDS011;14345;48.272;25.926;2023-10-09T03:34:02;3.30;;;1.70;;
26750;SDS011;14345;48.272;25.926;2023-10-09T03:36:28;5.47;;;1.92;;
26750;SDS011;14345;48.272;25.926;2023-10-09T03:38:56;2.45;;;1.50;;
26750;SDS011;14345;48.272;25.926;2023-10-09T03:41:23;4.20;;;1.90;;
26750;SDS011;14345;48.272;25.926;2023-10-09T03:43:54;3.03;;;1.50;;
26750;SDS011;14345;48.272;25.926;2023-10-09T03:46:20;4.13;;;1.48;;
26750;SDS011;14345;48.272;25.926;2023-10-09T03:48:51;6.18;;;1.33;;
26750;SDS011;14345;48.272;25.926;2023-10-09T03:51:22;3.42;;;1.70;;
26750;SDS011;14345;48.272;25.926;2023-10-09T03:53:48;2.15;;;1.30;;
26750;SDS011;14345;48.272;25.926;2023-10-09T03:56:17;3.95;;;1.70;;
26750;SDS011;14345;48.272;25.926;2023-10-09T03:58:46;3.40;;;1.58;;
26750;SDS011;14345;48.272;25.926;2023-10-09T04:01:14;4.25;;;1.52;;
26750;SDS011;14345;48.272;25.926;2023-10-09T04:03:50;2.65;;;1.48;;
26750;SDS011;14345;48.272;25.926;2023-10-09T04:06:21;3.00;;;1.52;;
26750;SDS011;14345;48.272;25.926;2023-10-09T04:08:47;4.93;;;1.70;;
26750;SDS011;14345;48.272;25.926;2023-10-09T04:11:14;5.40;;;1.70;;
26750;SDS011;14345;48.272;25.926;2023-10-09T04:13:47;2.78;;;1.73;;
26750;SDS011;14345;48.272;25.926;2023-10-09T04:16:24;6.05;;;1.67;;
26750;SDS011;14345;48.272;25.926;2023-10-09T04:18:57;6.18;;;1.70;;
26750;SDS011;14345;48.272;25.926;2023-10-09T04:21:24;4.80;;;1.70;;
26750;SDS011;14345;48.272;25.926;2023-10-09T04:24:01;2.65;;;1.52;;
26750;SDS011;14345;48.272;25.926;2023-10-09T04:26:54;3.45;;;1.60;;
26750;SDS011;14345;48.272;25.926;2023-10-09T04:29:23;5.25;;;2.20;;
26750;SDS011;14345;48.272;25.926;2023-10-09T04:31:53;5.78;;;1.90;;
26750;SDS011;14345;48.272;25.926;2023-10-09T04:34:23;3.28;;;1.60;;
26750;SDS011;14345;48.272;25.926;2023-10-09T04:37:13;2.63;;;1.48;;
26750;SDS011;14345;48.272;25.926;2023-10-09T04:39:39;3.03;;;1.60;;
26750;SDS011;14345;48.272;25.926;2023-10-09T04:42:12;3.95;;;1.88;;
26750;SDS011;14345;48.272;25.926;2023-10-09T04:44:51;3.10;;;1.80;;
26750;SDS011;14345;48.272;25.926;2023-10-09T04:47:45;3.78;;;2.10;;
26750;SDS011;14345;48.272;25.926;2023-10-09T04:50:15;4.32;;;1.98;;
26750;SDS011;14345;48.272;25.926;2023-10-09T04:52:44;4.15;;;1.52;;
26750;SDS011;14345;48.272;25.926;2023-10-09T04:55:17;3.90;;;1.67;;
26750;SDS011;14345;48.272;25.926;2023-10-09T04:57:49;6.45;;;1.80;;
26750;SDS011;14345;48.272;25.926;2023-10-09T05:00:34;2.90;;;1.75;;
26750;SDS011;14345;48.272;25.926;2023-10-09T05:03:12;3.55;;;1.40;;
26750;SDS011;14345;48.272;25.926;2023-10-09T05:05:51;5.15;;;2.00;;
26750;SDS011;14345;48.272;25.926;2023-10-09T05:08:27;2.55;;;1.70;;
26750;SDS011;14345;48.272;25.926;2023-10-09T05:10:53;4.07;;;1.70;;
26750;SDS011;14345;48.272;25.926;2023-10-09T05:13:26;4.88;;;1.90;;
26750;SDS011;14345;48.272;25.926;2023-10-09T05:16:11;4.50;;;1.90;;
26750;SDS011;14345;48.272;25.926;2023-10-09T05:18:58;6.18;;;1.70;;
26750;SDS011;14345;48.272;25.926;2023-10-09T05:21:50;4.72;;;1.75;;
26750;SDS011;14345;48.272;25.926;2023-10-09T05:24:17;9.02;;;1.80;;
26750;SDS011;14345;48.272;25.926;2023-10-09T05:26:50;3.38;;;1.88;;
26750;SDS011;14345;48.272;25.926;2023-10-09T05:31:49;4.75;;;2.25;;
26750;SDS011;14345;48.272;25.926;2023-10-09T05:34:20;3.83;;;1.95;;
26750;SDS011;14345;48.272;25.926;2023-10-09T05:36:47;4.25;;;2.13;;
26750;SDS011;14345;48.272;25.926;2023-10-09T05:39:13;3.10;;;1.67;;
26750;SDS011;14345;48.272;25.926;2023-10-09T05:41:47;4.97;;;2.28;;
26750;SDS011;14345;48.272;25.926;2023-10-09T05:44:24;2.90;;;1.73;;
26750;SDS011;14345;48.272;25.926;2023-10-09T05:47:09;3.22;;;1.77;;
26750;SDS011;14345;48.272;25.926;2023-10-09T05:50:00;5.70;;;2.10;;
26750;SDS011;14345;48.272;25.926;2023-10-09T05:52:38;5.20;;;2.28;;
26750;SDS011;14345;48.272;25.926;2023-10-09T05:55:07;3.70;;;1.80;;
26750;SDS011;14345;48.272;25.926;2023-10-09T05:57:56;3.63;;;1.58;;
26750;SDS011;14345;48.272;25.926;2023-10-09T06:00:22;3.78;;;1.88;;
26750;SDS011;14345;48.272;25.926;2023-10-09T06:03:07;6.68;;;2.30;;
26750;SDS011;14345;48.272;25.926;2023-10-09T06:08:24;4.50;;;1.48;;
26750;SDS011;14345;48.272;25.926;2023-10-09T06:11:14;5.35;;;1.92;;
26750;SDS011;14345;48.272;25.926;2023-10-09T06:13:59;4.85;;;2.22;;
26750;SDS011;14345;48.272;25.926;2023-10-09T06:16:45;4.95;;;2.00;;
26750;SDS011;14345;48.272;25.926;2023-10-09T06:19:25;2.88;;;1.60;;
26750;SDS011;14345;48.272;25.926;2023-10-09T06:21:52;3.05;;;1.58;;
26750;SDS011;14345;48.272;25.926;2023-10-09T06:24:21;4.50;;;2.08;;
26750;SDS011;14345;48.272;25.926;2023-10-09T06:27:06;5.10;;;1.60;;
26750;SDS011;14345;48.272;25.926;2023-10-09T06:29:32;4.95;;;1.70;;
26750;SDS011;14345;48.272;25.926;2023-10-09T06:32:11;3.22;;;1.73;;
26750;SDS011;14345;48.272;25.926;2023-10-09T06:34:47;6.40;;;1.80;;
26750;SDS011;14345;48.272;25.926;2023-10-09T06:37:19;4.40;;;1.95;;
26750;SDS011;14345;48.272;25.926;2023-10-09T06:39:49;3.17;;;1.38;;
26750;SDS011;14345;48.272;25.926;2023-10-09T06:42:15;6.13;;;2.00;;
26750;SDS011;14345;48.272;25.926;2023-10-09T06:47:33;5.07;;;2.10;;
26750;SDS011;14345;48.272;25.926;2023-10-09T06:50:09;4.03;;;2.00;;
26750;SDS011;14345;48.272;25.926;2023-10-09T06:52:50;5.22;;;1.90;;
26750;SDS011;14345;48.272;25.926;2023-10-09T06:55:26;3.15;;;1.70;;
26750;SDS011;14345;48.272;25.926;2023-10-09T06:57:59;2.60;;;1.70;;
26750;SDS011;14345;48.272;25.926;2023-10-09T07:00:38;2.00;;;1.35;;
26750;SDS011;14345;48.272;25.926;2023-10-09T07:03:17;4.13;;;1.98;;
26750;SDS011;14345;48.272;25.926;2023-10-09T07:05:44;5.85;;;2.42;;
26750;SDS011;14345;48.272;25.926;2023-10-09T07:08:30;8.32;;;1.85;;
26750;SDS011;14345;48.272;25.926;2023-10-09T07:11:02;2.55;;;1.42;;
26750;SDS011;14345;48.272;25.926;2023-10-09T07:13:55;3.80;;;1.50;;
26750;SDS011;14345;48.272;25.926;2023-10-09T07:16:21;5.20;;;1.60;;
26750;SDS011;14345;48.272;25.926;2023-10-09T07:19:03;2.92;;;1.60;;
26750;SDS011;14345;48.272;25.926;2023-10-09T07:21:51;4.10;;;2.13;;
26750;SDS011;14345;48.272;25.926;2023-10-09T07:24:19;4.45;;;2.00;;
26750;SDS011;14345;48.272;25.926;2023-10-09T07:27:03;2.65;;;1.33;;
26750;SDS011;14345;48.272;25.926;2023-10-09T07:29:34;3.75;;;1.90;;
26750;SDS011;14345;48.272;25.926;2023-10-09T07:32:13;2.75;;;1.30;;
26750;SDS011;14345;48.272;25.926;2023-10-09T07:34:45;3.33;;;1.75;;
26750;SDS011;14345;48.272;25.926;2023-10-09T07:37:29;6.53;;;1.98;;
26750;SDS011;14345;48.272;25.926;2023-10-09T07:40:01;4.32;;;1.70;;
26750;SDS011;14345;48.272;25.926;2023-10-09T07:42:32;2.53;;;1.40;;
26750;SDS011;14345;48.272;25.926;2023-10-09T07:45:05;3.42;;;1.20;;
26750;SDS011;14345;48.272;25.926;2023-10-09T07:47:57;3.45;;;1.38;;
26750;SDS011;14345;48.272;25.926;2023-10-09T07:50:36;2.58;;;1.38;;
26750;SDS011;14345;48.272;25.926;2023-10-09T07:53:09;2.67;;;1.55;;
26750;SDS011;14345;48.272;25.926;2023-10-09T07:55:45;3.78;;;1.90;;
26750;SDS011;14345;48.272;25.926;2023-10-09T07:58:23;5.75;;;1.90;;
26750;SDS011;14345;48.272;25.926;2023-10-09T08:00:53;5.82;;;1.90;;
26750;SDS011;14345;48.272;25.926;2023-10-09T08:03:31;2.95;;;1.50;;
26750;SDS011;14345;48.272;25.926;2023-10-09T08:05:59;3.40;;;1.80;;
26750;SDS011;14345;48.272;25.926;2023-10-09T08:08:43;3.38;;;1.40;;
26750;SDS011;14345;48.272;25.926;2023-10-09T08:11:28;5.80;;;1.83;;
26750;SDS011;14345;48.272;25.926;2023-10-09T08:14:10;4.75;;;1.40;;
26750;SDS011;14345;48.272;25.926;2023-10-09T08:16:55;2.53;;;1.55;;
26750;SDS011;14345;48.272;25.926;2023-10-09T08:19:39;2.85;;;1.23;;
26750;SDS011;14345;48.272;25.926;2023-10-09T08:22:23;2.20;;;1.27;;
26750;SDS011;14345;48.272;25.926;2023-10-09T08:24:50;4.00;;;1.50;;
26750;SDS011;14345;48.272;25.926;2023-10-09T08:27:28;3.28;;;1.30;;
26750;SDS011;14345;48.272;25.926;2023-10-09T08:30:06;2.53;;;1.63;;
26750;SDS011;14345;48.272;25.926;2023-10-09T08:32:41;2.40;;;1.40;;
26750;SDS011;14345;48.272;25.926;2023-10-09T08:35:08;2.92;;;1.42;;
26750;SDS011;14345;48.272;25.926;2023-10-09T08:37:53;2.50;;;1.40;;
26750;SDS011;14345;48.272;25.926;2023-10-09T08:40:27;4.72;;;1.20;;
26750;SDS011;14345;48.272;25.926;2023-10-09T08:42:56;3.15;;;1.13;;
26750;SDS011;14345;48.272;25.926;2023-10-09T08:45:23;1.73;;;0.93;;
26750;SDS011;14345;48.272;25.926;2023-10-09T08:47:55;6.65;;;1.35;;
26750;SDS011;14345;48.272;25.926;2023-10-09T08:50:22;2.38;;;1.23;;
26750;SDS011;14345;48.272;25.926;2023-10-09T08:52:53;2.40;;;1.33;;
26750;SDS011;14345;48.272;25.926;2023-10-09T08:55:20;2.42;;;1.20;;
26750;SDS011;14345;48.272;25.926;2023-10-09T08:57:46;3.03;;;1.40;;
26750;SDS011;14345;48.272;25.926;2023-10-09T09:00:18;3.67;;;1.23;;
26750;SDS011;14345;48.272;25.926;2023-10-09T09:02:55;1.77;;;0.95;;
26750;SDS011;14345;48.272;25.926;2023-10-09T09:05:21;3.45;;;1.63;;
26750;SDS011;14345;48.272;25.926;2023-10-09T09:07:48;3.35;;;1.92;;
26750;SDS011;14345;48.272;25.926;2023-10-09T09:10:14;4.60;;;1.70;;
26750;SDS011;14345;48.272;25.926;2023-10-09T09:12:46;2.70;;;1.48;;
26750;SDS011;14345;48.272;25.926;2023-10-09T09:15:19;2.95;;;1.23;;
26750;SDS011;14345;48.272;25.926;2023-10-09T09:17:48;4.25;;;1.25;;
26750;SDS011;14345;48.272;25.926;2023-10-09T09:20:21;1.95;;;1.33;;
26750;SDS011;14345;48.272;25.926;2023-10-09T09:22:51;2.85;;;1.33;;
26750;SDS011;14345;48.272;25.926;2023-10-09T09:25:18;2.88;;;1.23;;
26750;SDS011;14345;48.272;25.926;2023-10-09T09:27:49;2.17;;;1.25;;
26750;SDS011;14345;48.272;25.926;2023-10-09T09:30:27;2.00;;;1.33;;
26750;SDS011;14345;48.272;25.926;2023-10-09T09:33:22;3.70;;;1.27;;
26750;SDS011;14345;48.272;25.926;2023-10-09T09:36:08;2.28;;;1.38;;
26750;SDS011;14345;48.272;25.926;2023-10-09T09:38:37;5.45;;;1.58;;
26750;SDS011;14345;48.272;25.926;2023-10-09T09:41:16;2.38;;;1.20;;
26750;SDS011;14345;48.272;25.926;2023-10-09T09:43:58;7.45;;;1.52;;
26750;SDS011;14345;48.272;25.926;2023-10-09T09:46:34;2.55;;;1.25;;
26750;SDS011;14345;48.272;25.926;2023-10-09T09:49:01;2.00;;;1.25;;
26750;SDS011;14345;48.272;25.926;2023-10-09T09:51:31;2.53;;;1.42;;
26750;SDS011;14345;48.272;25.926;2023-10-09T09:53:57;2.80;;;1.65;;
26750;SDS011;14345;48.272;25.926;2023-10-09T09:56:24;2.03;;;1.20;;
26750;SDS011;14345;48.272;25.926;2023-10-09T09:58:51;2.35;;;1.30;;
26750;SDS011;14345;48.272;25.926;2023-10-09T10:01:25;1.95;;;1.20;;
26750;SDS011;14345;48.272;25.926;2023-10-09T10:03:59;2.30;;;1.20;;
26750;SDS011;14345;48.272;25.926;2023-10-09T10:06:29;2.72;;;1.08;;
26750;SDS011;14345;48.272;25.926;2023-10-09T10:08:57;1.50;;;1.30;;
26750;SDS011;14345;48.272;25.926;2023-10-09T10:11:43;1.30;;;1.05;;
26750;SDS011;14345;48.272;25.926;2023-10-09T10:14:09;1.80;;;1.27;;
26750;SDS011;14345;48.272;25.926;2023-10-09T10:17:08;2.97;;;1.40;;
26750;SDS011;14345;48.272;25.926;2023-10-09T10:20:03;4.30;;;1.15;;
26750;SDS011;14345;48.272;25.926;2023-10-09T10:22:44;2.35;;;1.27;;
26750;SDS011;14345;48.272;25.926;2023-10-09T10:31:07;2.58;;;1.40;;
26750;SDS011;14345;48.272;25.926;2023-10-09T10:34:19;2.28;;;1.25;;
26750;SDS011;14345;48.272;25.926;2023-10-09T10:36:23;4.13;;;1.30;;
26750;SDS011;14345;48.272;25.926;2023-10-09T10:39:05;2.95;;;1.60;;
26750;SDS011;14345;48.272;25.926;2023-10-09T10:41:55;5.40;;;1.55;;
26750;SDS011;14345;48.272;25.926;2023-10-09T10:47:04;3.22;;;1.60;;
26750;SDS011;14345;48.272;25.926;2023-10-09T10:49:42;4.05;;;1.55;;
26750;SDS011;14345;48.272;25.926;2023-10-09T10:52:19;2.80;;;1.55;;
26750;SDS011;14345;48.272;25.926;2023-10-09T10:54:45;3.65;;;1.80;;
26750;SDS011;14345;48.272;25.926;2023-10-09T10:57:15;3.08;;;1.77;;
26750;SDS011;14345;48.272;25.926;2023-10-09T10:59:45;5.18;;;2.00;;
26750;SDS011;14345;48.272;25.926;2023-10-09T11:02:14;2.75;;;1.40;;
26750;SDS011;14345;48.272;25.926;2023-10-09T11:04:53;2.35;;;1.50;;
26750;SDS011;14345;48.272;25.926;2023-10-09T11:07:39;2.60;;;1.38;;
26750;SDS011;14345;48.272;25.926;2023-10-09T11:10:06;2.00;;;1.30;;
26750;SDS011;14345;48.272;25.926;2023-10-09T11:12:42;3.92;;;1.50;;
26750;SDS011;14345;48.272;25.926;2023-10-09T11:15:11;3.60;;;1.80;;
26750;SDS011;14345;48.272;25.926;2023-10-09T11:18:08;3.38;;;1.60;;
26750;SDS011;14345;48.272;25.926;2023-10-09T11:20:35;3.85;;;1.83;;
26750;SDS011;14345;48.272;25.926;2023-10-09T11:23:03;3.97;;;1.88;;
26750;SDS011;14345;48.272;25.926;2023-10-09T11:25:36;5.68;;;1.60;;
26750;SDS011;14345;48.272;25.926;2023-10-09T11:28:15;3.88;;;2.03;;
26750;SDS011;14345;48.272;25.926;2023-10-09T11:30:53;4.90;;;2.67;;
26750;SDS011;14345;48.272;25.926;2023-10-09T11:33:20;4.32;;;2.15;;
26750;SDS011;14345;48.272;25.926;2023-10-09T11:35:56;4.90;;;2.00;;
26750;SDS011;14345;48.272;25.926;2023-10-09T11:38:23;3.92;;;2.20;;
26750;SDS011;14345;48.272;25.926;2023-10-09T11:40:51;5.47;;;2.22;;
26750;SDS011;14345;48.272;25.926;2023-10-09T11:43:18;4.35;;;1.88;;
26750;SDS011;14345;48.272;25.926;2023-10-09T11:46:10;4.90;;;2.00;;
26750;SDS011;14345;48.272;25.926;2023-10-09T11:48:36;5.97;;;3.78;;
26750;SDS011;14345;48.272;25.926;2023-10-09T11:51:22;6.50;;;2.47;;
26750;SDS011;14345;48.272;25.926;2023-10-09T11:53:48;3.40;;;2.45;;
26750;SDS011;14345;48.272;25.926;2023-10-09T11:56:15;3.22;;;1.90;;
26750;SDS011;14345;48.272;25.926;2023-10-09T11:58:48;2.80;;;1.42;;
26750;SDS011;14345;48.272;25.926;2023-10-09T12:01:18;4.28;;;1.95;;
26750;SDS011;14345;48.272;25.926;2023-10-09T12:03:51;2.95;;;1.50;;
26750;SDS011;14345;48.272;25.926;2023-10-09T12:06:19;2.53;;;1.70;;
26750;SDS011;14345;48.272;25.926;2023-10-09T12:08:47;2.45;;;1.50;;
26750;SDS011;14345;48.272;25.926;2023-10-09T12:11:17;2.33;;;1.50;;
26750;SDS011;14345;48.272;25.926;2023-10-09T12:13:53;2.33;;;1.17;;
26750;SDS011;14345;48.272;25.926;2023-10-09T12:16:23;3.70;;;1.40;;
26750;SDS011;14345;48.272;25.926;2023-10-09T12:18:53;2.78;;;1.40;;
26750;SDS011;14345;48.272;25.926;2023-10-09T12:21:20;4.15;;;1.80;;
26750;SDS011;14345;48.272;25.926;2023-10-09T12:23:46;3.05;;;1.52;;
26750;SDS011;14345;48.272;25.926;2023-10-09T12:26:12;5.20;;;1.80;;
26750;SDS011;14345;48.272;25.926;2023-10-09T12:28:42;4.03;;;2.00;;
26750;SDS011;14345;48.272;25.926;2023-10-09T12:31:14;5.55;;;2.35;;
26750;SDS011;14345;48.272;25.926;2023-10-09T12:33:40;6.47;;;2.30;;
26750;SDS011;14345;48.272;25.926;2023-10-09T12:36:11;6.25;;;2.50;;
26750;SDS011;14345;48.272;25.926;2023-10-09T12:38:42;4.75;;;2.72;;
26750;SDS011;14345;48.272;25.926;2023-10-09T12:41:11;4.43;;;2.83;;
26750;SDS011;14345;48.272;25.926;2023-10-09T12:43:53;4.55;;;2.67;;
26750;SDS011;14345;48.272;25.926;2023-10-09T12:46:19;4.00;;;2.80;;
26750;SDS011;14345;48.272;25.926;2023-10-09T12:48:50;4.03;;;2.35;;
26750;SDS011;14345;48.272;25.926;2023-10-09T12:51:19;3.65;;;2.42;;
26750;SDS011;14345;48.272;25.926;2023-10-09T12:53:46;4.65;;;2.85;;
26750;SDS011;14345;48.272;25.926;2023-10-09T12:56:25;4.88;;;2.20;;
26750;SDS011;14345;48.272;25.926;2023-10-09T12:59:03;3.10;;;1.92;;
26750;SDS011;14345;48.272;25.926;2023-10-09T13:01:34;3.75;;;1.70;;
26750;SDS011;14345;48.272;25.926;2023-10-09T13:04:09;3.03;;;1.63;;
26750;SDS011;14345;48.272;25.926;2023-10-09T13:06:37;3.97;;;1.30;;
26750;SDS011;14345;48.272;25.926;2023-10-09T13:09:09;3.33;;;1.30;;
26750;SDS011;14345;48.272;25.926;2023-10-09T13:11:35;2.83;;;1.17;;
26750;SDS011;14345;48.272;25.926;2023-10-09T13:14:02;2.67;;;1.20;;
26750;SDS011;14345;48.272;25.926;2023-10-09T13:16:36;2.72;;;1.60;;
26750;SDS011;14345;48.272;25.926;2023-10-09T13:19:02;3.78;;;1.63;;
26750;SDS011;14345;48.272;25.926;2023-10-09T13:21:35;4.68;;;2.47;;
26750;SDS011;14345;48.272;25.926;2023-10-09T13:24:04;3.17;;;1.80;;
26750;SDS011;14345;48.272;25.926;2023-10-09T13:26:30;3.00;;;1.92;;
26750;SDS011;14345;48.272;25.926;2023-10-09T13:28:58;5.75;;;1.88;;
26750;SDS011;14345;48.272;25.926;2023-10-09T13:31:25;3.20;;;1.60;;
26750;SDS011;14345;48.272;25.926;2023-10-09T13:33:54;2.53;;;1.85;;
26750;SDS011;14345;48.272;25.926;2023-10-09T13:36:21;2.75;;;1.40;;
26750;SDS011;14345;48.272;25.926;2023-10-09T13:39:06;2.58;;;1.80;;
26750;SDS011;14345;48.272;25.926;2023-10-09T13:41:44;2.25;;;1.48;;
26750;SDS011;14345;48.272;25.926;2023-10-09T13:44:10;2.22;;;1.40;;
26750;SDS011;14345;48.272;25.926;2023-10-09T13:46:36;3.28;;;1.55;;
26750;SDS011;14345;48.272;25.926;2023-10-09T13:49:15;4.45;;;1.65;;
26750;SDS011;14345;48.272;25.926;2023-10-09T13:51:41;2.50;;;1.40;;
26750;SDS011;14345;48.272;25.926;2023-10-09T13:54:09;5.53;;;1.75;;
26750;SDS011;14345;48.272;25.926;2023-10-09T13:56:35;5.38;;;1.60;;
26750;SDS011;14345;48.272;25.926;2023-10-09T13:59:04;3.70;;;1.50;;
26750;SDS011;14345;48.272;25.926;2023-10-09T14:01:36;3.00;;;1.40;;
26750;SDS011;14345;48.272;25.926;2023-10-09T14:04:04;2.45;;;1.50;;
26750;SDS011;14345;48.272;25.926;2023-10-09T14:06:32;4.15;;;1.70;;
26750;SDS011;14345;48.272;25.926;2023-10-09T14:09:03;2.95;;;1.70;;
26750;SDS011;14345;48.272;25.926;2023-10-09T14:11:34;3.20;;;1.80;;
26750;SDS011;14345;48.272;25.926;2023-10-09T14:14:05;3.20;;;1.73;;
26750;SDS011;14345;48.272;25.926;2023-10-09T14:16:37;3.75;;;1.70;;
26750;SDS011;14345;48.272;25.926;2023-10-09T14:19:08;4.40;;;1.65;;
26750;SDS011;14345;48.272;25.926;2023-10-09T14:21:38;5.50;;;2.00;;
26750;SDS011;14345;48.272;25.926;2023-10-09T14:24:05;6.85;;;2.20;;
26750;SDS011;14345;48.272;25.926;2023-10-09T14:26:40;3.38;;;2.20;;
26750;SDS011;14345;48.272;25.926;2023-10-09T14:29:06;3.22;;;1.95;;
26750;SDS011;14345;48.272;25.926;2023-10-09T14:31:33;5.35;;;2.95;;
26750;SDS011;14345;48.272;25.926;2023-10-09T14:34:04;5.97;;;3.08;;
26750;SDS011;14345;48.272;25.926;2023-10-09T14:36:34;4.03;;;2.28;;
26750;SDS011;14345;48.272;25.926;2023-10-09T14:39:00;4.30;;;2.25;;
26750;SDS011;14345;48.272;25.926;2023-10-09T14:41:28;4.97;;;2.40;;
26750;SDS011;14345;48.272;25.926;2023-10-09T14:43:58;3.70;;;2.38;;
26750;SDS011;14345;48.272;25.926;2023-10-09T14:46:24;3.28;;;2.08;;
26750;SDS011;14345;48.272;25.926;2023-10-09T14:48:53;3.03;;;2.17;;
26750;SDS011;14345;48.272;25.926;2023-10-09T14:51:23;6.32;;;2.30;;
26750;SDS011;14345;48.272;25.926;2023-10-09T14:53:53;5.78;;;2.40;;
26750;SDS011;14345;48.272;25.926;2023-10-09T14:56:20;6.25;;;2.75;;
26750;SDS011;14345;48.272;25.926;2023-10-09T14:58:53;7.10;;;2.85;;
26750;SDS011;14345;48.272;25.926;2023-10-09T15:01:21;8.80;;;3.85;;
26750;SDS011;14345;48.272;25.926;2023-10-09T15:03:49;7.00;;;3.40;;
26750;SDS011;14345;48.272;25.926;2023-10-09T15:06:18;7.35;;;3.88;;
26750;SDS011;14345;48.272;25.926;2023-10-09T15:08:44;13.00;;;5.22;;
26750;SDS011;14345;48.272;25.926;2023-10-09T15:11:11;7.88;;;5.10;;
26750;SDS011;14345;48.272;25.926;2023-10-09T15:13:40;13.20;;;5.43;;
26750;SDS011;14345;48.272;25.926;2023-10-09T15:16:06;9.40;;;5.65;;
26750;SDS011;14345;48.272;25.926;2023-10-09T15:18:32;8.73;;;5.22;;
26750;SDS011;14345;48.272;25.926;2023-10-09T15:21:02;11.32;;;5.35;;
26750;SDS011;14345;48.272;25.926;2023-10-09T15:23:28;7.38;;;4.43;;
26750;SDS011;14345;48.272;25.926;2023-10-09T15:25:54;7.80;;;4.20;;
26750;SDS011;14345;48.272;25.926;2023-10-09T15:28:21;7.80;;;4.03;;
26750;SDS011;14345;48.272;25.926;2023-10-09T15:30:47;8.07;;;3.78;;